createdAt,value
2022-09-14T00:01:24.287Z,17.02
2022-09-14T00:04:18.115Z,17.00
2022-09-14T00:07:23.144Z,17.09
2022-09-14T00:10:29.918Z,16.95
2022-09-14T00:13:36.371Z,16.97
2022-09-14T00:16:47.638Z,17.04
2022-09-14T00:19:53.765Z,17.15
2022-09-14T00:22:59.221Z,17.29
2022-09-14T00:26:04.936Z,17.30
2022-09-14T00:29:13.222Z,17.17
2022-09-14T00:32:34.325Z,17.21
2022-09-14T00:35:39.988Z,17.22
2022-09-14T00:38:46.746Z,17.26
2022-09-14T00:41:55.602Z,17.19
2022-09-14T00:45:08.381Z,17.18
2022-09-14T00:48:14.141Z,17.23
2022-09-14T00:51:21.150Z,17.15
2022-09-14T00:54:27.086Z,16.96
2022-09-14T00:57:33.707Z,16.97
2022-09-14T01:00:41.662Z,16.88
2022-09-14T01:03:48.086Z,16.96
2022-09-14T01:07:03.536Z,16.85
2022-09-14T01:10:32.377Z,17.08
2022-09-14T01:14:07.478Z,17.13
2022-09-14T01:17:42.719Z,17.06
2022-09-14T01:21:16.966Z,17.23
2022-09-14T01:24:44.555Z,17.27
2022-09-14T01:27:54.185Z,17.28
2022-09-14T01:30:59.912Z,17.20
2022-09-14T01:34:10.200Z,17.02
2022-09-14T01:37:32.956Z,16.95
2022-09-14T01:40:54.675Z,16.87
2022-09-14T01:44:12.108Z,16.59
2022-09-14T01:47:47.617Z,16.47
2022-09-14T01:51:07.793Z,16.39
2022-09-14T01:54:19.788Z,16.18
2022-09-14T01:57:38.974Z,16.14
2022-09-14T02:00:45.643Z,15.98
2022-09-14T02:04:08.175Z,15.89
2022-09-14T02:07:14.965Z,15.99
2022-09-14T02:10:22.652Z,15.84
2022-09-14T02:13:28.002Z,15.87
2022-09-14T02:16:33.913Z,15.85
2022-09-14T02:19:42.380Z,15.80
2022-09-14T02:22:49.182Z,15.74
2022-09-14T02:25:54.631Z,15.62
2022-09-14T02:29:03.705Z,15.87
2022-09-14T02:32:27.689Z,16.07
2022-09-14T02:35:57.328Z,16.02
2022-09-14T02:39:09.605Z,16.15
2022-09-14T02:42:50.318Z,16.04
2022-09-14T02:46:01.312Z,16.09
2022-09-14T02:49:40.607Z,16.03
2022-09-14T02:52:52.001Z,16.05
2022-09-14T02:56:03.579Z,16.13
2022-09-14T02:59:09.338Z,16.05
2022-09-14T03:02:15.867Z,16.24
2022-09-14T03:05:21.243Z,15.98
2022-09-14T03:08:27.496Z,16.02
2022-09-14T03:11:33.728Z,15.96
2022-09-14T03:14:38.635Z,15.97
2022-09-14T03:17:45.931Z,16.06
2022-09-14T03:20:52.185Z,16.16
2022-09-14T03:24:01.655Z,16.15
2022-09-14T03:27:08.059Z,16.22
2022-09-14T03:30:15.669Z,16.28
2022-09-14T03:33:22.405Z,16.55
2022-09-14T03:36:32.428Z,16.54
2022-09-14T03:39:37.244Z,16.60
2022-09-14T03:42:42.611Z,16.56
2022-09-14T03:45:48.132Z,16.55
2022-09-14T03:48:55.798Z,16.54
2022-09-14T03:52:02.632Z,16.58
2022-09-14T03:55:07.322Z,16.63
2022-09-14T03:58:13.459Z,16.73
2022-09-14T04:01:21.890Z,16.66
2022-09-14T04:04:28.678Z,16.78
2022-09-14T04:07:34.709Z,16.84
2022-09-14T04:10:41.066Z,16.75
2022-09-14T04:13:46.446Z,16.65
2022-09-14T04:16:53.501Z,16.63
2022-09-14T04:19:59.173Z,16.76
2022-09-14T04:23:05.419Z,16.73
2022-09-14T04:26:11.907Z,16.70
2022-09-14T04:29:17.918Z,16.94
2022-09-14T04:32:23.647Z,16.96
2022-09-14T04:35:29.305Z,16.96
2022-09-14T04:38:34.526Z,17.03
2022-09-14T04:41:39.943Z,17.03
2022-09-14T04:44:46.207Z,17.10
2022-09-14T04:47:51.356Z,17.21
2022-09-14T04:50:58.013Z,17.27
2022-09-14T04:54:05.817Z,17.37
2022-09-14T04:57:11.335Z,17.39
2022-09-14T05:00:16.244Z,17.38
2022-09-14T05:03:21.947Z,17.56
2022-09-14T05:06:37.420Z,17.71
2022-09-14T05:09:43.971Z,17.60
2022-09-14T05:12:49.943Z,17.69
2022-09-14T05:18:29.574Z,17.74
2022-09-14T05:21:36.148Z,17.66
2022-09-14T05:24:45.766Z,17.88
2022-09-14T05:27:56.687Z,17.92
2022-09-14T05:31:03.252Z,17.84
2022-09-14T05:34:09.200Z,17.87
2022-09-14T05:37:17.383Z,17.97
2022-09-14T05:40:24.604Z,17.99
2022-09-14T05:43:29.999Z,18.26
2022-09-14T05:46:35.183Z,18.44
2022-09-14T05:49:35.118Z,18.48
2022-09-14T05:52:37.374Z,18.57
2022-09-14T05:55:42.613Z,18.67
2022-09-14T05:58:48.404Z,18.70
2022-09-14T06:01:54.879Z,18.64
2022-09-14T06:05:03.609Z,18.69
2022-09-14T06:08:09.597Z,18.59
2022-09-14T06:11:27.117Z,18.45
2022-09-14T06:14:33.843Z,18.46
2022-09-14T06:17:39.681Z,18.64
2022-09-14T06:20:44.728Z,18.86
2022-09-14T06:23:49.518Z,18.78
2022-09-14T06:26:55.802Z,18.97
2022-09-14T06:30:01.310Z,19.09
2022-09-14T06:33:06.332Z,18.98
2022-09-14T06:36:18.817Z,19.15
2022-09-14T06:39:18.024Z,19.22
2022-09-14T06:42:24.340Z,19.42
2022-09-14T06:45:30.113Z,19.37
2022-09-14T06:48:36.536Z,19.31
2022-09-14T06:51:48.609Z,19.32
2022-09-14T06:54:54.356Z,19.50
2022-09-14T06:58:02.707Z,19.53
2022-09-14T07:01:08.246Z,19.59
2022-09-14T07:04:14.852Z,19.43
2022-09-14T07:07:21.027Z,19.47
2022-09-14T07:10:46.079Z,19.50
2022-09-14T07:13:52.260Z,19.44
2022-09-14T07:16:50.663Z,19.52
2022-09-14T07:19:43.468Z,19.44
2022-09-14T07:22:49.263Z,19.61
2022-09-14T07:25:54.977Z,19.81
2022-09-14T07:29:03.751Z,19.85
2022-09-14T07:32:10.313Z,19.91
2022-09-14T07:35:15.542Z,20.09
2022-09-14T07:38:35.822Z,20.06
2022-09-14T07:41:30.520Z,20.26
2022-09-14T07:44:36.584Z,20.46
2022-09-14T07:47:42.360Z,20.44
2022-09-14T07:50:47.745Z,20.62
2022-09-14T07:53:52.042Z,20.52
2022-09-14T07:56:38.013Z,20.72
2022-09-14T07:59:36.219Z,20.66
2022-09-14T08:02:30.918Z,20.67
2022-09-14T08:05:30.915Z,20.67
2022-09-14T08:08:37.880Z,20.73
2022-09-14T08:11:45.988Z,20.84
2022-09-14T08:14:51.295Z,20.97
2022-09-14T08:17:57.352Z,21.00
2022-09-14T08:21:05.687Z,20.78
2022-09-14T08:24:13.636Z,20.91
2022-09-14T08:27:18.119Z,20.92
2022-09-14T08:30:24.267Z,21.14
2022-09-14T08:33:30.911Z,21.24
2022-09-14T08:36:38.723Z,21.28
2022-09-14T08:39:47.210Z,21.58
2022-09-14T08:42:50.941Z,21.59
2022-09-14T08:45:57.889Z,21.71
2022-09-14T08:49:02.881Z,21.74
2022-09-14T08:52:07.989Z,21.80
2022-09-14T08:55:15.273Z,21.84
2022-09-14T08:58:28.435Z,21.85
2022-09-14T09:01:59.195Z,22.12
2022-09-14T09:05:39.476Z,22.39
2022-09-14T09:09:08.337Z,22.50
2022-09-14T09:12:13.813Z,22.58
2022-09-14T09:15:35.486Z,22.44
2022-09-14T09:19:09.675Z,22.29
2022-09-14T09:22:14.453Z,22.24
2022-09-14T09:25:20.833Z,22.35
2022-09-14T09:28:26.580Z,22.33
2022-09-14T09:31:32.612Z,22.37
2022-09-14T09:34:43.919Z,22.43
2022-09-14T09:37:59.313Z,22.52
2022-09-14T09:41:09.477Z,22.52
2022-09-14T09:44:17.486Z,22.58
2022-09-14T09:47:24.310Z,22.73
2022-09-14T09:50:33.029Z,22.97
2022-09-14T09:53:38.714Z,23.10
2022-09-14T09:56:55.047Z,23.21
2022-09-14T10:00:01.700Z,23.19
2022-09-14T10:03:10.176Z,23.12
2022-09-14T10:06:22.994Z,23.20
2022-09-14T10:09:33.897Z,22.89
2022-09-14T10:12:39.739Z,22.83
2022-09-14T10:15:50.021Z,22.74
2022-09-14T10:18:59.545Z,22.68
2022-09-14T10:22:30.256Z,22.56
2022-09-14T10:25:41.569Z,22.41
2022-09-14T10:28:49.612Z,22.36
2022-09-14T10:31:55.488Z,22.23
2022-09-14T10:35:00.815Z,22.19
2022-09-14T10:38:23.543Z,22.24
2022-09-14T10:41:55.072Z,22.39
2022-09-14T10:45:05.571Z,22.24
2022-09-14T10:48:25.173Z,22.45
2022-09-14T10:51:59.532Z,22.49
2022-09-14T10:55:46.167Z,22.57
2022-09-14T10:59:13.997Z,22.80
2022-09-14T11:02:46.953Z,22.72
2022-09-14T11:05:56.087Z,22.90
2022-09-14T11:09:08.149Z,23.00
2022-09-14T11:12:33.771Z,22.88
2022-09-14T11:16:17.607Z,22.91
2022-09-14T11:19:30.624Z,23.02
2022-09-14T11:23:33.698Z,23.09
2022-09-14T11:26:56.013Z,23.13
2022-09-14T11:30:07.763Z,22.99
2022-09-14T11:33:31.073Z,22.84
2022-09-14T11:36:44.089Z,23.00
2022-09-14T11:40:25.450Z,23.09
2022-09-14T11:43:49.608Z,23.20
2022-09-14T11:47:01.380Z,23.11
2022-09-14T11:50:22.839Z,23.02
2022-09-14T11:53:31.472Z,22.87
2022-09-14T11:56:48.720Z,23.02
2022-09-14T12:00:01.397Z,22.98
2022-09-14T12:03:35.100Z,23.04
2022-09-14T12:06:54.889Z,22.92
2022-09-14T12:10:00.831Z,23.07
2022-09-14T12:13:08.774Z,22.97
2022-09-14T12:16:22.449Z,23.11
2022-09-14T12:19:31.629Z,23.02
2022-09-14T12:22:52.738Z,22.99
2022-09-14T12:26:27.069Z,23.19
2022-09-14T12:29:47.505Z,23.43
2022-09-14T12:32:59.457Z,23.42
2022-09-14T12:36:04.602Z,23.47
2022-09-14T12:39:14.194Z,23.51
2022-09-14T12:42:43.872Z,23.69
2022-09-14T12:46:15.438Z,23.78
2022-09-14T12:49:41.605Z,23.92
2022-09-14T12:53:04.003Z,23.92
2022-09-14T12:56:16.323Z,23.94
2022-09-14T12:59:28.757Z,23.79
2022-09-14T13:03:01.570Z,23.88
2022-09-14T13:06:07.253Z,23.95
2022-09-14T13:09:13.647Z,24.06
2022-09-14T13:12:21.387Z,23.93
2022-09-14T13:15:38.714Z,24.00
2022-09-14T13:18:52.078Z,23.85
2022-09-14T13:22:03.388Z,23.79
2022-09-14T13:25:10.303Z,23.69
2022-09-14T13:28:19.207Z,23.80
2022-09-14T13:31:28.475Z,23.73
2022-09-14T13:34:20.765Z,23.76
2022-09-14T13:37:29.145Z,23.65
2022-09-14T13:40:39.874Z,23.67
2022-09-14T13:43:45.233Z,23.77
2022-09-14T13:46:51.358Z,23.76
2022-09-14T13:49:58.325Z,23.74
2022-09-14T13:53:05.884Z,23.69
2022-09-14T13:56:10.612Z,23.70
2022-09-14T13:59:32.883Z,23.83
2022-09-14T14:02:31.552Z,23.56
2022-09-14T14:05:30.364Z,23.76
2022-09-14T14:08:33.919Z,23.73
2022-09-14T14:11:20.458Z,23.58
2022-09-14T14:14:31.568Z,23.65
2022-09-14T14:17:40.294Z,23.64
2022-09-14T14:20:50.475Z,23.71
2022-09-14T14:24:12.059Z,23.61
2022-09-14T14:27:10.765Z,23.60
2022-09-14T14:30:18.583Z,23.52
2022-09-14T14:33:29.501Z,23.38
2022-09-14T14:36:33.093Z,23.49
2022-09-14T14:39:39.739Z,23.29
2022-09-14T14:42:46.181Z,23.21
2022-09-14T14:45:51.616Z,23.15
2022-09-14T14:48:58.078Z,23.02
2022-09-14T14:52:04.118Z,23.11
2022-09-14T14:55:09.636Z,23.01
2022-09-14T14:58:17.401Z,23.01
2022-09-14T15:01:22.890Z,22.97
2022-09-14T15:04:29.210Z,23.05
2022-09-14T15:07:37.721Z,22.84
2022-09-14T15:10:43.614Z,22.88
2022-09-14T15:13:50.640Z,22.87
2022-09-14T15:16:58.315Z,22.95
2022-09-14T15:20:04.769Z,23.01
2022-09-14T15:23:10.438Z,22.95
2022-09-14T15:26:16.635Z,22.93
2022-09-14T15:29:24.259Z,22.97
2022-09-14T15:32:29.359Z,22.88
2022-09-14T15:35:28.169Z,22.89
2022-09-14T15:38:33.924Z,22.96
2022-09-14T15:41:39.858Z,22.82
2022-09-14T15:44:45.303Z,22.79
2022-09-14T15:47:51.540Z,22.74
2022-09-14T15:50:58.527Z,22.76
2022-09-14T15:54:04.647Z,22.77
2022-09-14T15:57:13.161Z,22.45
2022-09-14T16:00:22.748Z,22.48
2022-09-14T16:03:28.432Z,22.38
2022-09-14T16:06:28.520Z,22.36
2022-09-14T16:09:33.846Z,22.37
2022-09-14T16:12:40.571Z,22.40
2022-09-14T16:15:45.877Z,22.41
2022-09-14T16:18:51.897Z,22.40
2022-09-14T16:21:57.359Z,22.38
2022-09-14T16:25:03.381Z,22.28
2022-09-14T16:28:10.371Z,22.25
2022-09-14T16:31:25.646Z,22.23
2022-09-14T16:34:37.507Z,22.16
2022-09-14T16:37:45.052Z,22.07
2022-09-14T16:40:53.021Z,22.14
2022-09-14T16:43:59.038Z,22.03
2022-09-14T16:47:06.415Z,22.07
2022-09-14T16:50:12.617Z,22.03
2022-09-14T16:53:18.013Z,22.01
2022-09-14T16:56:28.288Z,22.04
2022-09-14T16:59:33.366Z,21.92
2022-09-14T17:02:39.359Z,21.89
2022-09-14T17:05:46.171Z,21.76
2022-09-14T17:08:51.673Z,21.75
2022-09-14T17:11:57.372Z,21.72
2022-09-14T17:15:04.195Z,21.66
2022-09-14T17:18:09.783Z,21.53
2022-09-14T17:21:27.091Z,21.46
2022-09-14T17:24:32.741Z,21.46
2022-09-14T17:27:37.955Z,21.33
2022-09-14T17:30:44.496Z,21.25
2022-09-14T17:33:49.928Z,21.15
2022-09-14T17:36:55.628Z,21.14
2022-09-14T17:40:02.312Z,21.02
2022-09-14T17:43:08.752Z,20.89
2022-09-14T17:46:15.567Z,20.78
2022-09-14T17:49:21.255Z,20.55
2022-09-14T17:52:28.107Z,20.28
2022-09-14T17:55:33.693Z,20.25
2022-09-14T17:58:40.721Z,20.17
2022-09-14T18:01:49.500Z,20.12
2022-09-14T18:04:58.373Z,20.27
2022-09-14T18:08:03.429Z,20.31
2022-09-14T18:11:10.412Z,20.41
2022-09-14T18:14:18.833Z,20.63
2022-09-14T18:17:25.307Z,20.76
2022-09-14T18:20:31.062Z,20.71
2022-09-14T18:23:36.550Z,20.67
2022-09-14T18:26:42.389Z,20.70
2022-09-14T18:29:47.455Z,20.56
2022-09-14T18:32:53.961Z,20.55
2022-09-14T18:35:58.889Z,20.11
2022-09-14T18:39:07.034Z,20.25
2022-09-14T18:42:13.608Z,20.36
2022-09-14T18:45:20.854Z,20.06
2022-09-14T18:48:27.365Z,20.19
2022-09-14T18:51:32.836Z,20.22
2022-09-14T18:54:37.969Z,20.33
2022-09-14T18:57:44.086Z,20.33
2022-09-14T19:00:51.385Z,20.33
2022-09-14T19:03:58.103Z,20.46
2022-09-14T19:07:07.051Z,20.54
2022-09-14T19:10:14.012Z,20.54
2022-09-14T19:13:20.528Z,20.55
2022-09-14T19:16:32.971Z,20.49
2022-09-14T19:19:40.053Z,20.53
2022-09-14T19:22:46.244Z,20.50
2022-09-14T19:25:55.323Z,20.55
2022-09-14T19:29:02.528Z,20.55
2022-09-14T19:32:09.247Z,20.48
2022-09-14T19:35:15.733Z,20.33
2022-09-14T19:38:20.996Z,20.45
2022-09-14T19:41:27.616Z,20.32
2022-09-14T19:44:32.603Z,20.34
2022-09-14T19:47:38.252Z,20.38
2022-09-14T19:50:42.585Z,20.28
2022-09-14T19:53:49.731Z,19.98
2022-09-14T19:56:54.562Z,20.20
2022-09-14T19:59:54.078Z,19.94
2022-09-14T20:03:02.050Z,20.11
2022-09-14T20:06:30.654Z,20.05
2022-09-14T20:09:37.076Z,20.08
2022-09-14T20:12:44.541Z,20.11
2022-09-14T20:15:51.174Z,20.06
2022-09-14T20:18:57.826Z,20.15
2022-09-14T20:22:05.571Z,20.30
2022-09-14T20:25:10.402Z,20.33
2022-09-14T20:28:16.315Z,20.37
2022-09-14T20:31:26.236Z,20.36
2022-09-14T20:34:31.428Z,20.54
2022-09-14T20:37:36.639Z,20.25
2022-09-14T20:40:41.846Z,20.28
2022-09-14T20:43:52.483Z,20.26
2022-09-14T20:46:59.765Z,20.30
2022-09-14T20:50:05.930Z,20.24
2022-09-14T20:53:12.041Z,20.40
2022-09-14T20:56:21.187Z,20.43
2022-09-14T20:59:30.348Z,20.28
2022-09-14T21:02:36.885Z,20.25
2022-09-14T21:05:42.748Z,20.24
2022-09-14T21:08:49.616Z,20.29
2022-09-14T21:11:56.171Z,20.43
2022-09-14T21:15:02.538Z,20.26
2022-09-14T21:18:08.157Z,20.23
2022-09-14T21:21:22.249Z,20.26
2022-09-14T21:24:21.611Z,20.20
2022-09-14T21:27:08.978Z,20.02
2022-09-14T21:30:02.991Z,19.97
2022-09-14T21:32:56.494Z,19.48
2022-09-14T21:36:02.400Z,19.76
2022-09-14T21:39:15.681Z,19.69
2022-09-14T21:42:23.190Z,19.77
2022-09-14T21:45:29.456Z,19.75
2022-09-14T21:48:36.030Z,19.55
2022-09-14T21:51:47.438Z,19.76
2022-09-14T21:54:53.418Z,19.88
2022-09-14T21:58:03.290Z,19.97
2022-09-14T22:01:13.209Z,20.08
2022-09-14T22:04:22.013Z,20.10
2022-09-14T22:07:28.731Z,20.11
2022-09-14T22:10:34.116Z,20.13
2022-09-14T22:13:33.131Z,20.10
2022-09-14T22:16:30.491Z,20.08
2022-09-14T22:19:43.105Z,19.95
2022-09-14T22:22:49.354Z,19.81
2022-09-14T22:25:56.571Z,19.82
2022-09-14T22:29:07.031Z,19.79
2022-09-14T22:32:14.555Z,19.82
2022-09-14T22:35:22.142Z,19.63
2022-09-14T22:38:27.572Z,19.75
2022-09-14T22:41:34.980Z,19.63
2022-09-14T22:44:41.582Z,19.64
2022-09-14T22:47:48.299Z,19.77
2022-09-14T22:50:57.413Z,20.02
2022-09-14T22:54:04.120Z,19.91
2022-09-14T22:57:10.935Z,20.04
2022-09-14T23:00:17.246Z,20.06
2022-09-14T23:03:24.260Z,19.96
2022-09-14T23:06:30.031Z,19.96
2022-09-14T23:09:29.990Z,19.85
2022-09-14T23:12:35.490Z,19.98
2022-09-14T23:15:41.234Z,19.94
2022-09-14T23:18:46.955Z,20.06
2022-09-14T23:21:53.987Z,20.16
2022-09-14T23:24:58.950Z,20.22
2022-09-14T23:28:05.064Z,20.35
2022-09-14T23:31:10.230Z,20.30
2022-09-14T23:34:10.134Z,20.00
2022-09-14T23:37:16.693Z,19.94
2022-09-14T23:40:26.165Z,20.14
2022-09-14T23:43:33.640Z,20.38
2022-09-14T23:46:32.267Z,20.33
2022-09-14T23:49:26.872Z,20.40
2022-09-14T23:52:32.655Z,20.40
2022-09-14T23:55:39.493Z,20.38
2022-09-14T23:58:45.036Z,20.45
